Terminal Aerodrome Forecast
Issued by NWS

Home | Current Version | Previous Version | Text Only | Print | Product List | Glossary On
Versions: 1 2 3 4 5 6 7 8 9 10 11 12 13 14 15 16 17 18 19 20
880
FTUS43 KMQT 222341
TAFCMX
TAF
KCMX 222341Z 2300/2324 11005KT P6SM OVC090
     FM230300 11006KT 6SM -SN SCT025 OVC060
     FM230400 10005KT 1SM -SN OVC011
     FM230600 08008KT 3/4SM -SN OVC005
     FM231400 11007KT 2SM -SN OVC008
     FM231600 VRB03KT 6SM -SN OVC009
     FM231800 27008KT P6SM OVC008
     FM232300 29009KT P6SM BKN020=

USA.gov is the U.S. government's official web portal to all federal, state and local government web resources and services.